Impacts TAF Board
For situational awareness. Not to be used for flight planning purposes.
IDs:

KHUM - Houma/Terrebonne Arp, LA, US

Issued at 0521 UTC 01 Dec 2022
Updated at 0637 UTC 01 Dec 2022
Potential Impact None Slight Moderate High
Time<<01/19Z 01/20Z 01/21Z 01/22Z 01/23Z 02/00Z 02/01Z 02/02Z 02/03Z 02/04Z 02/05Z 02/06Z 02/07Z>>
Type PRVL PRVL PRVL PRVL PRVL PRVL PRVL PRVL PRVL PRVL PRVL
VIS >6 >6 >6 >6 >6 >6 >6 >6 >6 >6 >6
CIG -- -- -- -- -- -- -- -- -- -- --
Cover FEW FEW FEW FEW FEW SKC SKC SKC SKC SKC SKC
FltCat VFR VFR VFR VFR VFR VFR VFR VFR VFR VFR VFR
WX -- -- -- -- -- -- -- -- -- -- --
WDir 70 70 70 70 70 60 60 60 60 60 60
WSpd 13 13 13 13 13 5 5 5 5 5 5
WGst 22 22 22 22 22 -- -- -- -- -- --
WSHgt -- -- -- -- -- -- -- -- -- -- --
WSDir -- -- -- -- -- -- -- -- -- -- --
WSSpd -- -- -- -- -- -- -- -- -- -- --
Raw TAF
KHUM 010521Z 0106/0206 01010KT P6SM FEW250
  FM011500 07013G22KT P6SM FEW250
  FM020000 06005KT P6SM SKC


METAR Board
Radar Display
Forecast Discussion
For situational awareness. Not to be used for flight planning purposes.